Fontana, CA

3:09 AM PDT on September 02, 2015 (GMT -0700)
The Villiages | | Change Station
CLOSE
Current Station
Personal Weather Station
Location: Fontana, CA
Elevation: 1309 ft
Nearby Weather Stations

Elev 1309 ft 34.12 °N, 117.48 °W | Updated 4 minutes ago

Overcast
Overcast
64.0 °F
Feels Like 64.0 °F
N
0.0
Wind Variable Wind from North
Gusts 1.6 mph

Today
High -- | Low -- °F
--% Chance of Precip.
Yesterday
High -- | Low -- °F
Precip. -- in
6:23 AM 7:14 PM
Waning Gibbous, 81% visible
Pressure 29.92 in
Visibility 10.0 miles
Clouds Overcast 1500 ft
Dew Point 62 °F
Humidity 93%
Rainfall 0.00 in
Snow Depth Not available.
UV 0 out of 12
Pollen 7.20 out of 12
Air Quality Not available.
Flu Activity Not available.
METAR KONT 020953Z 25006KT 10SM OVC015 19/16 A2997 RMK AO2 SLP132 T01940156
Pressure 29.92 in
Visibility 10.0 miles
Clouds Overcast 1500 ft
Dew Point 62 °F
Humidity 93%
Rainfall 0.00 in
Snow Depth Not available.
UV 0 out of 12
Pollen 7.20 out of 12
Air Quality Not available.
Flu Activity Not available.
METAR KONT 020953Z 25006KT 10SM OVC015 19/16 A2997 RMK AO2 SLP132 T01940156

10-Day Weather Forecast

×

Almanac

Astronomy

Sep. 02, 2015 Rise Set
Actual Time
Civil Twilight
Nautical Twilight
Astronomical Twilight
Moon
Length of Visible Light
Length of Day
Tomorrow will be .
, % of the Moon is Illuminated

Today's Extremes

State Highs State Lows

Community

WunderPhotos

Upload Photos

1,851,731 photos uploaded!

WunderBlogs® & News

Nearby

Air Quality

  Air Quality AQ Index Pollutant
Not available.

Snow Depth

Station Depth Elevation

Earthquake Activity

City Distance Mag. Time & Date
Minimum magnitude displayed is 2.5.

Coastal Water Temperatures

Place Temperature

Stations

Nearby Weather Stations

Station Location Temp. Windchill Dew Point Humidity Wind Precip. Elev Updated Type